createdAt,value
2022-09-26T00:02:42.607Z,10.28
2022-09-26T00:08:00.738Z,10.3
2022-09-26T00:13:20.093Z,10.34
2022-09-26T00:18:39.670Z,10.32
2022-09-26T00:23:57.825Z,10.3
2022-09-26T00:29:17.280Z,10.28
2022-09-26T00:34:37.099Z,10.14
2022-09-26T00:39:56.376Z,10.02
2022-09-26T00:45:15.303Z,9.95
2022-09-26T00:50:35.772Z,9.93
2022-09-26T00:57:09.947Z,9.89
2022-09-26T01:01:13.943Z,9.85
2022-09-26T01:08:12.437Z,9.77
2022-09-26T01:11:52.202Z,9.59
2022-09-26T01:18:50.775Z,9.62
2022-09-26T01:22:29.730Z,9.58
2022-09-26T01:27:50.189Z,9.52
2022-09-26T01:33:08.770Z,9.47
2022-09-26T01:38:27.776Z,9.47
2022-09-26T01:43:47.338Z,9.51
2022-09-26T01:49:06.235Z,9.57
2022-09-26T01:54:25.380Z,9.59
2022-09-26T01:59:44.690Z,9.6
2022-09-26T02:05:04.427Z,9.58
2022-09-26T02:10:23.381Z,9.54
2022-09-26T02:15:42.540Z,9.43
2022-09-26T02:21:01.809Z,9.43
2022-09-26T02:26:20.568Z,9.47
2022-09-26T02:31:40.138Z,9.47
2022-09-26T02:36:59.001Z,9.55
2022-09-26T02:42:19.477Z,9.57
2022-09-26T02:48:53.634Z,9.6
2022-09-26T02:58:18.125Z,9.59
2022-09-26T03:03:37.216Z,9.57
2022-09-26T03:08:54.148Z,9.58
2022-09-26T03:14:13.223Z,9.58
2022-09-26T03:19:33.610Z,9.58
2022-09-26T03:24:51.980Z,9.55
2022-09-26T03:30:10.763Z,9.55
2022-09-26T03:35:30.085Z,9.5
2022-09-26T03:40:49.743Z,9.43
2022-09-26T03:46:09.178Z,9.38
2022-09-26T03:51:28.950Z,9.39
2022-09-26T03:56:47.912Z,9.34
2022-09-26T04:03:22.086Z,9.3
2022-09-26T04:12:47.781Z,9.34
2022-09-26T04:18:05.927Z,9.35
2022-09-26T04:23:25.154Z,9.35
2022-09-26T04:28:53.143Z,9.34
2022-09-26T04:34:04.466Z,9.35
2022-09-26T04:39:22.628Z,9.32
2022-09-26T04:44:42.745Z,9.31
2022-09-26T04:50:01.585Z,9.26
2022-09-26T04:57:14.839Z,9.21
2022-09-26T05:01:16.926Z,9.21
2022-09-26T05:06:00.306Z,9.17
2022-09-26T05:11:20.041Z,9.1
2022-09-26T05:16:39.072Z,9.13
2022-09-26T05:25:12.129Z,9.1
2022-09-26T05:29:27.500Z,9.13
2022-09-26T05:32:35.430Z,9.18
2022-09-26T05:37:53.436Z,9.21
2022-09-26T05:43:12.861Z,9.26
2022-09-26T05:48:33.030Z,9.28
2022-09-26T05:53:51.470Z,9.34
2022-09-26T05:59:11.533Z,9.34
2022-09-26T06:04:29.593Z,9.43
2022-09-26T06:09:49.053Z,9.47
2022-09-26T06:15:08.295Z,9.58
2022-09-26T06:20:27.341Z,9.64
2022-09-26T06:25:47.619Z,9.85
2022-09-26T06:32:21.774Z,10.12
2022-09-26T06:36:27.363Z,10.3
2022-09-26T06:45:00.423Z,10.47
2022-09-26T06:47:06.277Z,10.54
2022-09-26T06:52:25.449Z,10.43
2022-09-26T06:57:42.927Z,10.44
2022-09-26T07:03:02.779Z,10.56
2022-09-26T07:09:36.912Z,10.5
2022-09-26T07:13:42.580Z,10.34
2022-09-26T07:19:01.610Z,10.64
2022-09-26T07:27:34.637Z,11.43
2022-09-26T07:40:18.182Z,12.56
2022-09-26T07:45:37.572Z,12.69
2022-09-26T07:50:56.663Z,12.52
2022-09-26T07:56:15.996Z,12.28
2022-09-26T08:04:49.065Z,12.22
2022-09-26T08:06:54.332Z,12.83
2022-09-26T08:17:31.987Z,13.91
2022-09-26T08:22:51.319Z,13.65
2022-09-26T08:31:24.400Z,13.81
2022-09-26T08:33:30.276Z,14.3
2022-09-26T08:44:08.271Z,13.95
2022-09-26T08:49:27.653Z,13.91
2022-09-26T08:54:45.238Z,14.16
2022-09-26T09:00:04.555Z,14.57
2022-09-26T09:05:23.686Z,14.85
2022-09-26T09:10:43.149Z,14.64
2022-09-26T09:16:02.351Z,14.06
2022-09-26T09:22:36.463Z,14.29
2022-09-26T09:32:01.340Z,14.8
2022-09-26T09:37:19.638Z,15.15
2022-09-26T09:42:38.910Z,15.29
2022-09-26T09:47:58.221Z,15.42
2022-09-26T09:54:32.405Z,15.94
2022-09-26T09:58:37.463Z,15.79
2022-09-26T10:03:57.030Z,15.21
2022-09-26T10:09:35.152Z,15.6
2022-09-26T10:14:34.139Z,16.27
2022-09-26T10:19:53.578Z,16.62
2022-09-26T10:25:12.820Z,16.29
2022-09-26T10:30:31.377Z,15.5
2022-09-26T10:35:51.012Z,15.48
2022-09-26T10:41:10.363Z,14.99
2022-09-26T10:46:29.700Z,14.71
2022-09-26T10:51:49.753Z,14.81
2022-09-26T10:57:08.676Z,14.81
2022-09-26T11:02:27.002Z,14.37
2022-09-26T11:07:46.431Z,14.1
2022-09-26T11:13:04.550Z,13.95
2022-09-26T11:18:24.546Z,13.75
2022-09-26T11:23:43.699Z,13.68
2022-09-26T11:29:03.183Z,13.88
2022-09-26T11:34:22.345Z,14.16
2022-09-26T11:39:41.627Z,14.34
2022-09-26T11:46:15.864Z,14.47
2022-09-26T11:50:20.867Z,15.48
2022-09-26T11:55:39.976Z,16.29
2022-09-26T12:00:59.313Z,15.99
2022-09-26T12:06:18.013Z,15.73
2022-09-26T12:14:51.067Z,15.31
2022-09-26T12:16:55.226Z,14.95
2022-09-26T12:23:53.814Z,15.86
2022-09-26T12:27:35.313Z,16.29
2022-09-26T12:36:08.365Z,15.6
2022-09-26T12:44:41.423Z,11.83
2022-09-26T12:54:11.591Z,10.33
2022-09-26T13:02:44.627Z,10.34
2022-09-26T13:15:28.930Z,10.91
2022-09-26T13:20:47.899Z,11.04
2022-09-26T13:26:07.002Z,11.26
2022-09-26T13:31:28.239Z,11.46
2022-09-26T13:36:45.843Z,12.38
2022-09-26T13:42:03.697Z,13.33
2022-09-26T13:47:22.675Z,14.18
2022-09-26T13:53:56.855Z,14.95
2022-09-26T13:58:01.155Z,15.12
2022-09-26T14:03:21.093Z,14.19
2022-09-26T14:09:55.232Z,13.57
2022-09-26T14:13:58.160Z,13.43
2022-09-26T14:19:18.312Z,13.38
2022-09-26T14:24:36.140Z,13.34
2022-09-26T14:29:55.216Z,13.13
2022-09-26T14:35:14.605Z,12.24
2022-09-26T14:40:43.808Z,11.23
2022-09-26T14:45:53.063Z,11.02
2022-09-26T14:51:12.596Z,11.43
2022-09-26T14:56:31.519Z,11.71
2022-09-26T15:03:05.717Z,12.11
2022-09-26T15:07:10.881Z,12.05
2022-09-26T15:12:30.569Z,11.93
2022-09-26T15:17:48.820Z,11.94
2022-09-26T15:24:47.398Z,12.1
2022-09-26T15:33:47.340Z,12.21
2022-09-26T15:39:06.424Z,12.14
2022-09-26T15:48:11.929Z,12.14
2022-09-26T15:52:27.355Z,12.02
2022-09-26T16:05:52.375Z,11.86
2022-09-26T16:11:00.944Z,11.77
2022-09-26T16:19:33.966Z,11.67
2022-09-26T16:21:38.208Z,11.56
2022-09-26T16:28:36.823Z,11.49
2022-09-26T16:37:36.577Z,11.38
2022-09-26T16:48:43.205Z,11.26
2022-09-26T16:54:02.375Z,11.07
2022-09-26T16:59:21.233Z,10.77
2022-09-26T17:07:54.325Z,10.49
2022-09-26T17:12:08.921Z,10.32
2022-09-26T17:15:42.481Z,10.18
2022-09-26T17:20:35.725Z,10.13
2022-09-26T17:25:57.680Z,10.08
2022-09-26T17:31:14.941Z,10.03
2022-09-26T17:36:33.171Z,9.96
2022-09-26T17:41:52.642Z,9.97
2022-09-26T17:47:11.565Z,10
2022-09-26T17:52:31.914Z,10
2022-09-26T17:59:06.118Z,10.05
2022-09-26T18:03:09.753Z,10.06
2022-09-26T18:08:28.996Z,10.02
2022-09-26T18:13:49.270Z,10.09
2022-09-26T18:19:08.020Z,10.13
2022-09-26T18:24:27.243Z,10.18
2022-09-26T18:29:46.209Z,10.28
2022-09-26T18:35:06.289Z,10.36
2022-09-26T18:41:40.469Z,10.59
2022-09-26T18:45:55.886Z,10.68
2022-09-26T18:52:54.449Z,10.72
2022-09-26T19:01:42.708Z,10.88
2022-09-26T19:07:01.699Z,10.95
2022-09-26T19:12:19.388Z,10.98
2022-09-26T19:17:38.163Z,11.14
2022-09-26T19:24:12.376Z,11.15
2022-09-26T19:28:27.739Z,11.14
2022-09-26T19:35:26.315Z,11.14
2022-09-26T19:38:55.631Z,11.15
2022-09-26T19:44:12.611Z,11.15
2022-09-26T19:49:32.237Z,11.25
2022-09-26T19:54:51.610Z,11.26
2022-09-26T20:01:25.866Z,11.44
2022-09-26T20:05:42.297Z,11.44
2022-09-26T20:10:50.249Z,11.39
2022-09-26T20:16:09.531Z,11.32
2022-09-26T20:21:28.618Z,11.26
2022-09-26T20:26:47.110Z,11.14
2022-09-26T20:32:06.385Z,11.02
2022-09-26T20:38:40.546Z,10.82
2022-09-26T20:42:44.774Z,10.57
2022-09-26T20:48:04.285Z,10.41
2022-09-26T20:53:22.895Z,10.34
2022-09-26T20:58:41.991Z,10.36
2022-09-26T21:04:02.445Z,10.26
2022-09-26T21:09:21.481Z,10.17
2022-09-26T21:16:20.139Z,10.17
2022-09-26T21:20:34.718Z,10.18
2022-09-26T21:25:19.082Z,10.14
2022-09-26T21:30:37.561Z,10.06
2022-09-26T21:35:57.650Z,9.99
2022-09-26T21:41:16.159Z,9.88
2022-09-26T21:46:36.046Z,9.85
2022-09-26T21:51:54.058Z,9.79
2022-09-26T21:57:13.254Z,9.75
2022-09-26T22:02:32.854Z,9.79
2022-09-26T22:07:51.798Z,9.78
2022-09-26T22:13:10.728Z,9.77
2022-09-26T22:18:30.496Z,9.75
2022-09-26T22:23:48.844Z,9.71
2022-09-26T22:29:08.848Z,9.68
2022-09-26T22:34:26.787Z,9.64
2022-09-26T22:39:46.289Z,9.67
2022-09-26T22:45:05.716Z,9.72
2022-09-26T22:50:24.759Z,9.71
2022-09-26T22:55:53.140Z,9.71
2022-09-26T23:01:03.646Z,9.72
2022-09-26T23:06:23.134Z,9.72
2022-09-26T23:11:41.411Z,9.74
2022-09-26T23:17:00.425Z,9.75
2022-09-26T23:22:20.055Z,9.78
2022-09-26T23:27:38.784Z,9.75
2022-09-26T23:32:58.249Z,9.75
2022-09-26T23:38:16.380Z,9.74
2022-09-26T23:43:36.012Z,9.78
2022-09-26T23:48:55.849Z,9.83
2022-09-26T23:54:23.087Z,9.83
2022-09-26T23:59:33.913Z,9.83
